Time;durP1;ratioP1;P1;durP2;ratioP2;P2;SDS_P1;SDS_P2;PMS_P1;PMS_P2;Temp;Humidity;BMP_temperature;BMP_pressure;BME280_temperature;BME280_humidity;BME280_pressure;Samples;Min_cycle;Max_cycle;Signal;HPM_P1;HPM_P2
2022/08/02 00:00:39;;;;;;;1.83;1.50;;;;;;;26.53;45.71;99866.31;4225112;27;20726;-63
2022/08/02 00:02:42;;;;;;;1.48;1.35;;;;;;;26.13;46.33;99876.63;4223405;28;20298;-62
2022/08/02 00:04:44;;;;;;;2.72;1.40;;;;;;;26.60;45.17;99866.91;4224490;27;20237;-62
2022/08/02 00:06:45;;;;;;;1.95;1.30;;;;;;;26.36;46.33;99871.91;4224490;28;20310;-62
2022/08/02 00:08:47;;;;;;;1.30;1.20;;;;;;;26.50;45.38;99877.72;4223909;27;20238;-62
2022/08/02 00:10:49;;;;;;;2.88;1.38;;;;;;;25.89;47.09;99873.38;4224222;28;20854;-63
2022/08/02 00:12:51;;;;;;;1.42;1.33;;;;;;;26.48;45.97;99858.06;4224952;27;20234;-63
2022/08/02 00:14:53;;;;;;;1.25;1.15;;;;;;;26.38;45.74;99883.34;4223825;28;20710;-62
2022/08/02 00:16:55;;;;;;;2.97;1.30;;;;;;;26.80;45.05;99868.94;4221997;28;20287;-63
2022/08/02 00:18:57;;;;;;;2.75;1.30;;;;;;;26.58;45.40;99865.53;4223240;28;20233;-63
2022/08/02 00:20:58;;;;;;;2.05;1.13;;;;;;;25.86;46.92;99873.88;4222982;28;20237;-63
2022/08/02 00:23:00;;;;;;;1.20;1.10;;;;;;;26.43;45.68;99868.94;4222869;28;20234;-63
2022/08/02 00:25:02;;;;;;;3.83;1.27;;;;;;;26.58;45.45;99865.53;4224821;27;20287;-63
2022/08/02 00:27:03;;;;;;;1.95;1.27;;;;;;;26.71;45.52;99871.34;4224013;28;20238;-63
2022/08/02 00:29:10;;;;;;;2.50;1.48;;;;;;;26.68;45.14;99880.03;4222477;28;20735;-63
2022/08/02 00:31:11;;;;;;;5.15;1.65;;;;;;;26.61;45.30;99887.63;4222525;27;20232;-63
2022/08/02 00:33:13;;;;;;;3.63;1.58;;;;;;;26.91;44.58;99880.72;4223235;27;20238;-63
2022/08/02 00:35:15;;;;;;;4.45;1.45;;;;;;;25.59;47.46;99891.06;4223229;27;20234;-64
2022/08/02 00:37:16;;;;;;;1.58;1.48;;;;;;;26.22;46.15;99876.13;4223925;27;20706;-63
2022/08/02 00:39:18;;;;;;;2.30;1.30;;;;;;;25.37;47.80;99885.66;4224549;28;20237;-63
2022/08/02 00:41:47;;;;;;;2.17;1.50;;;;;;;26.47;45.68;99873.63;4222908;27;20245;-62
2022/08/02 00:43:50;;;;;;;3.00;1.33;;;;;;;26.61;45.25;99898.56;4223319;28;20246;-63
2022/08/02 00:45:52;;;;;;;1.65;1.35;;;;;;;26.76;45.09;99900.56;4223842;28;20578;-63
2022/08/02 00:48:06;;;;;;;4.13;1.40;;;;;;;26.73;45.05;99913.91;4223253;27;20313;-64
2022/08/02 00:50:08;;;;;;;1.98;1.20;;;;;;;26.88;45.14;99906.63;4223376;27;20290;-64
2022/08/02 00:52:10;;;;;;;1.67;1.30;;;;;;;27.02;44.77;99917.88;4222509;28;20237;-64
2022/08/02 00:54:13;;;;;;;2.58;1.73;;;;;;;26.55;45.23;99920.59;4224125;28;20233;-64
2022/08/02 00:56:15;;;;;;;4.38;1.50;;;;;;;26.78;45.26;99920.19;4224590;27;20237;-63
2022/08/02 00:58:16;;;;;;;1.95;1.48;;;;;;;26.43;46.00;99918.81;4227296;27;20453;-63
2022/08/02 01:00:20;;;;;;;1.35;1.25;;;;;;;26.43;46.05;99918.00;4225567;27;20237;-64
2022/08/02 01:02:21;;;;;;;2.45;1.50;;;;;;;26.15;46.11;99918.06;4218987;27;20269;-64
2022/08/02 01:04:24;;;;;;;2.22;1.33;;;;;;;26.65;45.35;99902.38;4223459;27;20246;-63
2022/08/02 01:06:32;;;;;;;1.83;1.40;;;;;;;26.18;45.94;99916.72;4223885;27;20222;-63
2022/08/02 01:08:34;;;;;;;3.58;1.80;;;;;;;26.62;45.53;99915.72;4222059;28;20831;-62
2022/08/02 01:10:36;;;;;;;2.15;1.42;;;;;;;26.75;45.28;99915.25;4223193;27;20237;-62
2022/08/02 01:12:38;;;;;;;2.35;1.55;;;;;;;26.59;45.61;99916.25;4222029;28;20234;-64
2022/08/02 01:14:42;;;;;;;1.60;1.40;;;;;;;26.50;45.69;99914.03;4224075;27;20331;-63
2022/08/02 01:17:07;;;;;;;4.00;1.40;;;;;;;26.89;44.90;99905.53;4221916;28;20245;-62
2022/08/02 01:19:33;;;;;;;6.28;1.77;;;;;;;26.84;45.43;99901.94;4219537;27;20230;-62
2022/08/02 01:21:48;;;;;;;1.75;1.63;;;;;;;26.66;45.15;99908.69;4221548;27;20238;-63
2022/08/02 01:24:02;;;;;;;2.72;1.60;;;;;;;26.89;45.30;99900.09;4222360;27;20245;-64
2022/08/02 01:26:38;;;;;;;4.25;1.42;;;;;;;26.74;45.57;99905.47;4222698;28;20233;-64
2022/08/02 01:28:47;;;;;;;2.13;1.40;;;;;;;26.76;45.58;99903.28;4222965;28;20293;-64
2022/08/02 01:30:56;;;;;;;2.13;1.60;;;;;;;26.63;45.01;99904.56;4220398;27;20241;-64
2022/08/02 01:33:00;;;;;;;2.13;1.60;;;;;;;26.24;46.23;99901.25;4222837;27;20663;-64
2022/08/02 01:35:19;;;;;;;3.10;1.40;;;;;;;26.03;46.80;99898.34;4221648;28;20263;-64
2022/08/02 01:37:25;;;;;;;2.70;1.58;;;;;;;25.81;46.84;99900.25;4220562;28;20279;-62
2022/08/02 01:39:30;;;;;;;3.42;1.80;;;;;;;26.59;45.44;99889.81;4223903;28;20310;-62
2022/08/02 01:41:34;;;;;;;3.00;1.50;;;;;;;26.53;45.29;99902.56;4221997;27;20719;-62
2022/08/02 01:43:39;;;;;;;2.40;1.67;;;;;;;26.12;45.83;99904.97;4219761;28;20234;-63
2022/08/02 01:45:42;;;;;;;2.40;1.48;;;;;;;26.34;45.88;99899.41;4222015;27;20294;-62
2022/08/02 01:47:46;;;;;;;2.90;1.80;;;;;;;26.23;46.19;99899.59;4223708;27;20230;-63
2022/08/02 01:49:52;;;;;;;2.65;1.50;;;;;;;26.05;46.50;99890.72;4220228;28;20233;-63
2022/08/02 01:54:18;;;;;;;2.00;1.50;;;;;;;26.36;45.48;99906.53;4218061;27;20299;-63
2022/08/02 01:56:20;;;;;;;2.13;1.70;;;;;;;26.40;45.93;99904.91;4220756;27;20229;-63
2022/08/02 01:58:25;;;;;;;1.58;1.48;;;;;;;26.28;46.02;99913.25;4223461;27;20722;-62
2022/08/02 02:00:30;;;;;;;1.92;1.80;;;;;;;26.51;45.92;99906.66;4222751;27;20238;-63
2022/08/02 02:02:36;;;;;;;2.22;1.75;;;;;;;26.60;45.84;99904.25;4219269;28;20238;-63
2022/08/02 02:04:40;;;;;;;3.30;1.80;;;;;;;26.27;46.13;99915.16;4221760;28;20298;-63
2022/08/02 02:06:43;;;;;;;2.13;1.92;;;;;;;25.72;46.95;99895.28;4223506;28;20290;-63
2022/08/02 02:08:47;;;;;;;3.60;1.85;;;;;;;25.86;47.21;99905.75;4222328;27;20719;-63
2022/08/02 02:10:50;;;;;;;2.15;1.88;;;;;;;26.09;46.68;99896.47;4221312;28;20618;-62
2022/08/02 02:12:53;;;;;;;4.20;1.95;;;;;;;26.23;46.41;99896.88;4222490;28;20322;-62
2022/08/02 02:14:58;;;;;;;2.53;1.70;;;;;;;26.02;47.45;99899.41;4222167;27;20778;-63
2022/08/02 02:17:01;;;;;;;2.22;1.83;;;;;;;26.27;47.03;99898.00;4219954;28;20694;-63
2022/08/02 02:19:06;;;;;;;1.65;1.55;;;;;;;26.08;47.41;99894.81;4222607;28;20242;-63
2022/08/02 02:21:08;;;;;;;3.03;1.80;;;;;;;26.43;46.77;99883.38;4221014;28;21075;-63
2022/08/02 02:23:11;;;;;;;4.22;1.90;;;;;;;26.42;46.73;99900.84;4218765;27;20730;-63
2022/08/02 02:25:16;;;;;;;3.38;1.45;;;;;;;26.26;47.15;99888.16;4215620;28;20320;-63
2022/08/02 02:27:21;;;;;;;2.85;1.75;;;;;;;26.20;47.21;99889.19;4222081;27;20321;-63
2022/08/02 02:29:27;;;;;;;2.53;2.20;;;;;;;25.92;47.92;99885.69;4219376;28;20885;-63
2022/08/02 02:31:35;;;;;;;3.13;1.90;;;;;;;25.66;48.85;99890.88;4221427;28;20766;-63
2022/08/02 02:33:45;;;;;;;4.28;2.08;;;;;;;25.85;48.20;99882.34;4221550;28;20752;-63
2022/08/02 02:35:51;;;;;;;3.75;1.80;;;;;;;25.81;48.14;99873.03;4220616;28;20702;-63
2022/08/02 02:37:55;;;;;;;7.45;2.20;;;;;;;24.82;50.32;99883.84;4222515;27;20230;-64
2022/08/02 02:39:58;;;;;;;3.67;2.33;;;;;;;25.45;49.18;99873.47;4220975;28;20237;-63
2022/08/02 02:42:02;;;;;;;4.55;2.35;;;;;;;25.42;49.16;99884.88;4220434;27;20238;-63
2022/08/02 02:44:08;;;;;;;3.70;1.90;;;;;;;25.23;49.24;99878.91;4221589;28;20250;-63
2022/08/02 02:46:12;;;;;;;3.60;2.30;;;;;;;25.26;49.36;99883.84;4217669;27;20226;-63
2022/08/02 02:48:14;;;;;;;4.05;2.10;;;;;;;25.46;49.23;99871.56;4217250;28;20636;-63
2022/08/02 02:50:17;;;;;;;2.78;1.90;;;;;;;24.78;49.98;99888.94;4221932;28;20252;-63
2022/08/02 02:52:19;;;;;;;6.60;2.15;;;;;;;25.39;49.41;99875.34;4216072;28;20980;-63
2022/08/02 02:54:22;;;;;;;4.10;2.05;;;;;;;25.48;49.14;99877.59;4221400;28;20237;-63
2022/08/02 02:56:36;;;;;;;4.35;1.92;;;;;;;25.22;49.26;99888.13;4218312;28;20236;-63
2022/08/02 02:58:38;;;;;;;4.28;2.35;;;;;;;25.34;49.19;99886.13;4220347;28;20250;-63
2022/08/02 03:03:01;;;;;;;3.35;2.28;;;;;;;25.04;49.92;99889.28;4221998;28;20241;-64
2022/08/02 03:05:08;;;;;;;4.05;2.55;;;;;;;24.79;50.39;99889.78;4220676;27;20957;-63
2022/08/02 03:07:10;;;;;;;5.07;2.40;;;;;;;25.45;48.49;99892.53;4216844;28;20291;-63
2022/08/02 03:09:12;;;;;;;6.53;2.70;;;;;;;25.66;48.30;99888.16;4222291;27;20713;-62
2022/08/02 03:11:14;;;;;;;7.95;3.00;;;;;;;25.58;48.05;99902.22;4220220;28;21105;-63
2022/08/02 03:13:18;;;;;;;8.10;2.75;;;;;;;25.82;48.17;99891.03;4221199;27;20591;-63
2022/08/02 03:15:20;;;;;;;6.00;2.55;;;;;;;25.41;48.62;99897.66;4217772;28;20237;-63
2022/08/02 03:17:22;;;;;;;4.25;2.70;;;;;;;25.03;49.80;99884.91;4222206;27;20248;-63
2022/08/02 03:19:24;;;;;;;3.92;2.50;;;;;;;25.11;49.18;99891.84;4221499;28;20294;-63
2022/08/02 03:21:33;;;;;;;3.20;2.40;;;;;;;25.55;48.60;99887.19;4220077;28;20324;-63
2022/08/02 03:23:35;;;;;;;8.40;3.00;;;;;;;25.55;48.62;99900.00;4221210;27;20282;-63
2022/08/02 03:25:36;;;;;;;8.00;2.63;;;;;;;25.92;47.68;99910.19;4219467;28;20242;-63
2022/08/02 03:27:38;;;;;;;6.90;2.75;;;;;;;26.10;46.92;99911.72;4220619;27;20586;-63
2022/08/02 03:29:40;;;;;;;2.45;2.25;;;;;;;26.19;46.63;99912.91;4220555;28;20233;-63
2022/08/02 03:31:44;;;;;;;3.70;2.42;;;;;;;26.06;47.33;99918.78;4220107;27;21248;-63
2022/08/02 03:33:46;;;;;;;3.08;2.60;;;;;;;26.09;46.59;99919.09;4222426;28;20255;-67
2022/08/02 03:35:49;;;;;;;3.30;2.35;;;;;;;25.55;47.62;99917.16;4221648;27;20710;-64
2022/08/02 03:37:54;;;;;;;5.82;2.50;;;;;;;25.33;47.91;99917.13;4221151;27;20306;-64
2022/08/02 03:39:57;;;;;;;3.78;2.10;;;;;;;25.12;48.68;99912.50;4220383;28;20230;-64
2022/08/02 03:42:00;;;;;;;7.65;2.58;;;;;;;25.62;47.59;99907.97;4220792;28;20230;-64
2022/08/02 03:44:04;;;;;;;6.63;2.58;;;;;;;25.56;47.51;99907.06;4220190;27;20237;-64
2022/08/02 03:46:08;;;;;;;6.63;2.60;;;;;;;25.74;47.42;99911.38;4221818;27;20226;-63
2022/08/02 03:48:14;;;;;;;10.13;2.70;;;;;;;26.02;46.65;99914.94;4212821;28;20263;-65
2022/08/02 03:50:36;;;;;;;2.92;2.20;;;;;;;25.90;47.13;99915.06;4221033;28;20234;-64
2022/08/02 03:52:41;;;;;;;6.18;2.25;;;;;;;25.26;48.33;99930.13;4219381;28;20245;-65
2022/08/02 03:54:42;;;;;;;6.28;2.58;;;;;;;25.18;48.15;99919.66;4220649;28;20241;-64
2022/08/02 03:56:46;;;;;;;14.90;2.88;;;;;;;25.63;47.24;99912.31;4222223;27;20233;-64
2022/08/02 03:58:48;;;;;;;12.98;3.28;;;;;;;25.14;48.74;99921.22;4219101;28;20298;-63
2022/08/02 04:00:56;;;;;;;11.52;2.78;;;;;;;25.64;47.40;99911.25;4220118;27;20237;-63
2022/08/02 04:02:58;;;;;;;9.30;2.97;;;;;;;25.33;48.19;99897.28;4220484;27;20233;-63
2022/08/02 04:05:00;;;;;;;6.68;2.00;;;;;;;25.82;47.46;99912.81;4219871;28;20271;-64
2022/08/02 04:07:02;;;;;;;5.07;2.13;;;;;;;25.33;47.82;99917.13;4220289;28;20234;-63
2022/08/02 04:09:08;;;;;;;3.17;2.20;;;;;;;24.01;50.79;99914.84;4222717;28;20225;-63
2022/08/02 04:13:33;;;;;;;3.85;2.40;;;;;;;25.00;48.73;99899.88;4223857;27;20286;-64
2022/08/02 04:15:37;;;;;;;2.45;2.25;;;;;;;24.90;48.85;99902.41;4221591;28;20230;-63
2022/08/02 04:17:44;;;;;;;5.25;2.25;;;;;;;24.41;50.23;99910.34;4224456;27;20230;-64
2022/08/02 04:19:49;;;;;;;2.28;2.10;;;;;;;24.67;49.53;99898.81;4224494;28;20237;-63
2022/08/02 04:21:53;;;;;;;4.10;2.45;;;;;;;25.12;48.48;99897.03;4221584;28;20241;-63
2022/08/02 04:23:56;;;;;;;3.40;2.10;;;;;;;24.61;49.26;99916.09;4224834;27;20268;-63
2022/08/02 04:26:00;;;;;;;2.92;2.47;;;;;;;24.99;48.62;99900.94;4224668;27;20313;-63
2022/08/02 04:28:05;;;;;;;5.35;2.83;;;;;;;25.26;48.09;99894.75;4223073;27;20359;-63
2022/08/02 04:30:20;;;;;;;4.18;2.58;;;;;;;24.99;48.81;99905.56;4220358;28;20788;-63
2022/08/02 04:32:22;;;;;;;5.30;3.13;;;;;;;24.99;48.64;99906.38;4222390;28;20279;-63
2022/08/02 04:34:24;;;;;;;3.50;2.65;;;;;;;24.31;50.11;99917.28;4219456;28;20239;-64
2022/08/02 04:36:26;;;;;;;2.95;2.20;;;;;;;25.11;48.37;99900.00;4225023;28;20238;-63
2022/08/02 04:38:32;;;;;;;2.70;2.50;;;;;;;25.60;47.89;99898.16;4223819;27;20221;-63
2022/08/02 04:40:34;;;;;;;2.45;2.20;;;;;;;24.57;49.66;99920.41;4224298;27;20552;-64
2022/08/02 04:42:36;;;;;;;3.30;2.08;;;;;;;23.76;51.28;99904.34;4223675;27;20322;-64
2022/08/02 04:44:37;;;;;;;3.63;2.28;;;;;;;24.23;50.51;99893.25;4222202;27;20705;-64
2022/08/02 04:46:40;;;;;;;3.63;2.95;;;;;;;25.20;48.83;99890.31;4222794;27;20242;-63
2022/08/02 04:48:42;;;;;;;4.03;2.25;;;;;;;25.24;48.13;99916.75;4223916;28;20659;-63
2022/08/02 04:50:44;;;;;;;2.80;2.42;;;;;;;25.11;48.92;99913.59;4223891;27;20246;-63
2022/08/02 04:52:45;;;;;;;3.25;2.78;;;;;;;25.20;48.82;99915.59;4221724;27;20242;-64
2022/08/02 04:54:47;;;;;;;3.72;2.47;;;;;;;24.83;49.59;99918.09;4223113;28;20314;-63
2022/08/02 04:56:49;;;;;;;4.85;2.50;;;;;;;25.68;48.00;99928.72;4224330;28;20234;-66
2022/08/02 04:58:50;;;;;;;3.30;2.60;;;;;;;26.22;46.63;99922.47;4223915;27;20290;-66
2022/08/02 05:00:52;;;;;;;2.60;2.15;;;;;;;25.14;48.33;99940.28;4223372;27;20802;-67
2022/08/02 05:02:58;;;;;;;4.68;2.40;;;;;;;25.11;48.74;99924.47;4222578;27;20302;-66
2022/08/02 05:05:00;;;;;;;6.43;2.80;;;;;;;24.97;49.68;99927.56;4221839;28;20242;-67
2022/08/02 05:07:01;;;;;;;3.55;2.40;;;;;;;25.33;48.80;99916.31;4224559;28;20492;-66
2022/08/02 05:09:03;;;;;;;2.42;2.22;;;;;;;25.65;47.90;99921.88;4224590;27;20234;-66
2022/08/02 05:11:04;;;;;;;6.85;2.50;;;;;;;25.89;47.41;99919.69;4222395;27;20255;-67
2022/08/02 05:13:06;;;;;;;4.65;3.08;;;;;;;25.78;48.06;99924.22;4222300;28;20787;-67
2022/08/02 05:15:10;;;;;;;3.45;2.53;;;;;;;25.10;49.36;99939.97;4222232;28;20783;-66
2022/08/02 05:17:13;;;;;;;3.80;2.63;;;;;;;26.10;47.40;99915.31;4221475;27;20268;-67
2022/08/02 05:19:15;;;;;;;4.72;2.75;;;;;;;24.86;49.56;99940.16;4223928;28;20283;-66
2022/08/02 05:21:17;;;;;;;3.97;2.47;;;;;;;25.53;48.53;99926.66;4223170;27;20287;-66
2022/08/02 05:23:19;;;;;;;2.60;2.40;;;;;;;24.75;50.14;99923.91;4222786;28;20384;-65
2022/08/02 05:25:21;;;;;;;2.88;2.53;;;;;;;24.73;50.24;99913.28;4224164;27;20241;-66
2022/08/02 05:27:22;;;;;;;3.28;2.42;;;;;;;25.52;48.58;99925.00;4223839;27;20594;-66
2022/08/02 05:29:24;;;;;;;4.85;3.35;;;;;;;23.77;52.25;99927.69;4221888;27;20293;-66
2022/08/02 05:31:25;;;;;;;6.22;2.80;;;;;;;24.16;51.44;99914.28;4197251;22;20228;-32
2022/08/02 05:33:27;;;;;;;3.80;2.65;;;;;;;24.67;50.13;99901.53;4156474;28;20232;-30
2022/08/02 05:35:29;;;;;;;8.27;2.50;;;;;;;24.96;49.69;99911.50;4156773;28;21353;-31
2022/08/02 05:37:31;;;;;;;3.35;2.50;;;;;;;25.31;48.70;99913.03;4148253;28;20244;-32
2022/08/02 05:39:35;;;;;;;3.10;2.10;;;;;;;24.80;49.69;99930.31;4144608;28;20233;-31
2022/08/02 05:41:55;;;;;;;2.90;2.58;;;;;;;24.30;51.24;99915.63;4128371;28;20333;-32
2022/08/02 05:43:57;;;;;;;2.60;2.40;;;;;;;25.23;49.51;99917.00;4140322;28;20245;-32
2022/08/02 05:45:58;;;;;;;2.95;2.60;;;;;;;25.18;49.36;99919.66;4140360;28;20820;-31
2022/08/02 05:48:00;;;;;;;2.85;2.47;;;;;;;24.81;49.66;99934.66;4140099;28;20237;-30
2022/08/02 05:50:08;;;;;;;2.53;2.13;;;;;;;25.16;49.56;99921.81;4137411;28;20788;-33
2022/08/02 05:52:14;;;;;;;6.45;2.60;;;;;;;26.30;47.20;99919.25;4124948;28;20237;-31
2022/08/02 05:54:46;;;;;;;4.72;2.65;;;;;;;26.29;47.28;99923.91;4124624;28;20876;-30
2022/08/02 05:56:51;;;;;;;4.45;2.60;;;;;;;26.10;47.95;99933.53;4124078;28;20722;-30
2022/08/02 05:59:02;;;;;;;5.78;2.70;;;;;;;26.57;46.60;99934.78;4127678;28;20242;-31
2022/08/02 06:01:05;;;;;;;7.57;2.65;;;;;;;25.61;48.82;99934.38;4137325;28;20237;-31
2022/08/02 06:03:15;;;;;;;3.25;2.17;;;;;;;25.96;48.36;99946.75;4130601;28;20714;-32
2022/08/02 06:05:21;;;;;;;5.55;3.15;;;;;;;26.49;46.97;99944.25;4112940;28;20252;-31
2022/08/02 06:07:23;;;;;;;4.22;2.25;;;;;;;26.03;48.52;99946.53;4141434;28;20821;-31
2022/08/02 06:09:27;;;;;;;5.38;2.60;;;;;;;26.19;47.66;99942.09;4134545;28;20283;-31
2022/08/02 06:11:35;;;;;;;6.32;2.45;;;;;;;25.93;48.76;99934.44;4130223;28;20241;-31
2022/08/02 06:13:37;;;;;;;3.92;2.40;;;;;;;25.69;49.39;99947.53;4127647;28;20282;-31
2022/08/02 06:15:39;;;;;;;3.08;2.50;;;;;;;25.58;49.04;99952.03;4137606;28;20276;-31
2022/08/02 06:17:56;;;;;;;6.20;2.60;;;;;;;25.89;49.00;99941.47;4124318;28;20328;-31
2022/08/02 06:19:59;;;;;;;4.90;2.40;;;;;;;26.24;47.94;99942.94;4124467;28;20252;-30
2022/08/02 06:22:13;;;;;;;4.00;2.80;;;;;;;26.20;48.47;99944.56;4104895;28;20302;-31
2022/08/02 06:24:35;;;;;;;7.50;2.95;;;;;;;26.67;46.69;99941.16;4122872;28;20248;-30
2022/08/02 06:26:37;;;;;;;3.92;3.13;;;;;;;26.14;48.31;99949.13;4125358;28;20234;-30
2022/08/02 06:28:40;;;;;;;5.07;3.47;;;;;;;25.97;48.49;99957.41;4125448;28;20241;-31
2022/08/02 06:30:43;;;;;;;5.18;3.17;;;;;;;26.28;47.81;99954.94;4127644;28;20249;-31
2022/08/02 06:32:49;;;;;;;3.60;3.30;;;;;;;26.69;46.80;99957.25;4128584;28;20234;-30
2022/08/02 06:34:51;;;;;;;5.65;3.38;;;;;;;27.03;46.13;99952.28;4129114;28;20243;-31
2022/08/02 06:37:16;;;;;;;4.95;3.85;;;;;;;26.61;47.20;99966.72;4131705;28;20247;-31
2022/08/02 06:39:31;;;;;;;4.85;4.03;;;;;;;26.28;47.39;99965.03;4127320;28;20238;-32
2022/08/02 06:41:41;;;;;;;5.07;3.60;;;;;;;26.64;46.48;99957.19;4123047;28;20781;-32
2022/08/02 06:43:57;;;;;;;4.82;3.40;;;;;;;27.14;45.57;99963.28;4124220;28;20770;-30
2022/08/02 06:46:20;;;;;;;4.65;3.67;;;;;;;25.32;48.50;99969.91;4129010;28;20246;-34
2022/08/02 06:48:42;;;;;;;3.25;2.88;;;;;;;26.07;47.86;99953.16;4134275;28;20245;-31
2022/08/02 06:50:43;;;;;;;5.80;3.75;;;;;;;26.49;46.91;99938.78;4129433;28;20656;-32
2022/08/02 06:52:45;;;;;;;6.10;3.58;;;;;;;26.21;47.40;99937.19;4124347;28;20381;-31
2022/08/02 06:54:47;;;;;;;5.88;3.88;;;;;;;25.81;47.21;99949.28;4113727;28;20838;-34
2022/08/02 06:56:49;;;;;;;3.78;3.33;;;;;;;26.56;46.65;99938.59;4128218;28;20291;-30
2022/08/02 06:58:50;;;;;;;3.90;3.50;;;;;;;26.57;46.67;99945.69;4124184;28;20246;-32
2022/08/02 07:00:52;;;;;;;4.20;3.80;;;;;;;26.65;46.52;99946.00;4119595;28;20639;-32
2022/08/02 07:02:54;;;;;;;3.28;2.95;;;;;;;26.20;46.93;99950.00;4126513;28;20238;-31
2022/08/02 07:04:56;;;;;;;3.80;3.40;;;;;;;26.31;47.45;99942.72;4126528;28;20233;-32
2022/08/02 07:06:58;;;;;;;3.55;3.25;;;;;;;27.31;45.70;99933.06;4138856;28;20237;-30
2022/08/02 07:08:59;;;;;;;6.25;3.40;;;;;;;26.18;47.98;99938.50;4132785;28;20316;-30
2022/08/02 07:11:22;;;;;;;4.70;3.15;;;;;;;27.00;46.39;99932.88;4119815;28;20242;-31
2022/08/02 07:13:24;;;;;;;3.95;3.40;;;;;;;26.10;47.93;99938.97;4119607;28;20246;-30
2022/08/02 07:15:25;;;;;;;4.63;3.45;;;;;;;26.77;46.73;99948.53;4131434;28;20698;-31
2022/08/02 07:17:28;;;;;;;4.70;3.17;;;;;;;27.24;46.11;99934.09;4124841;28;20319;-31
2022/08/02 07:19:30;;;;;;;4.20;3.72;;;;;;;26.01;47.94;99959.63;4124797;28;20241;-32
2022/08/02 07:21:38;;;;;;;4.45;3.47;;;;;;;26.10;48.02;99961.63;4135911;28;20276;-31
2022/08/02 07:24:00;;;;;;;3.75;3.45;;;;;;;26.61;46.76;99955.81;4130115;28;20241;-31
2022/08/02 07:26:01;;;;;;;5.38;3.28;;;;;;;27.10;46.05;99959.44;4131620;28;20238;-31
2022/08/02 07:28:09;;;;;;;4.70;3.85;;;;;;;26.62;46.71;99957.47;4120358;28;20234;-31
2022/08/02 07:30:24;;;;;;;5.82;3.58;;;;;;;26.17;47.88;99953.25;4121546;28;20857;-30
2022/08/02 07:32:29;;;;;;;3.78;3.20;;;;;;;26.49;47.43;99949.69;4125240;28;20245;-30
2022/08/02 07:34:31;;;;;;;5.70;3.40;;;;;;;26.86;47.00;99940.72;4139728;28;20237;-31
2022/08/02 07:36:32;;;;;;;4.03;3.60;;;;;;;27.32;45.44;99945.63;4137142;28;20226;-31
2022/08/02 07:38:35;;;;;;;3.90;3.50;;;;;;;27.04;46.29;99955.81;4138050;28;20299;-31
2022/08/02 07:40:38;;;;;;;4.47;3.40;;;;;;;27.36;45.62;99946.72;4140641;28;20689;-34
2022/08/02 07:42:41;;;;;;;5.40;3.85;;;;;;;26.68;47.24;99945.50;4138457;28;20634;-31
2022/08/02 07:44:43;;;;;;;4.22;3.53;;;;;;;27.12;46.66;99936.25;4129154;28;20365;-29
2022/08/02 07:46:49;;;;;;;4.85;3.50;;;;;;;27.20;46.37;99941.19;4125802;28;20229;-29
2022/08/02 07:48:54;;;;;;;4.72;3.50;;;;;;;27.60;45.45;99938.88;4138247;28;20278;-30
2022/08/02 07:50:56;;;;;;;4.38;3.50;;;;;;;27.66;45.26;99951.50;4123611;28;20234;-31
2022/08/02 07:52:57;;;;;;;5.50;3.92;;;;;;;27.88;45.15;99947.75;4141458;28;20237;-30
2022/08/02 07:55:00;;;;;;;4.85;3.15;;;;;;;27.72;45.23;99944.97;4140593;28;20241;-30
2022/08/02 07:57:01;;;;;;;5.97;4.68;;;;;;;27.52;45.53;99948.44;4130591;28;20236;-31
2022/08/02 07:59:04;;;;;;;6.00;4.07;;;;;;;28.04;44.88;99943.97;4131646;28;20630;-29
2022/08/02 08:01:06;;;;;;;5.68;4.40;;;;;;;28.45;43.92;99951.38;4136567;28;20244;-31
2022/08/02 08:03:07;;;;;;;4.82;3.67;;;;;;;28.19;44.28;99954.09;4137803;28;20248;-30
2022/08/02 08:05:09;;;;;;;4.28;3.67;;;;;;;27.75;45.28;99962.72;4126724;28;20342;-31
2022/08/02 08:07:12;;;;;;;5.13;3.15;;;;;;;27.66;45.54;99959.69;4138572;28;20241;-30
2022/08/02 08:09:13;;;;;;;3.25;2.92;;;;;;;27.67;45.69;99953.16;4133865;28;20241;-30
2022/08/02 08:11:15;;;;;;;4.60;3.80;;;;;;;28.34;44.25;99937.72;4137074;28;20983;-30
2022/08/02 08:13:17;;;;;;;4.28;3.75;;;;;;;27.54;45.27;99954.44;4132560;28;21127;-30
2022/08/02 08:15:18;;;;;;;6.47;3.22;;;;;;;27.12;46.90;99941.69;4133417;28;20249;-31
2022/08/02 08:17:20;;;;;;;6.18;2.95;;;;;;;28.11;44.68;99949.97;4137591;28;20344;-30
2022/08/02 08:19:22;;;;;;;3.80;3.13;;;;;;;27.39;46.15;99940.75;4140384;28;20656;-31
2022/08/02 08:21:43;;;;;;;3.75;3.10;;;;;;;27.02;47.13;99917.06;4135558;28;20316;-30
2022/08/02 08:23:45;;;;;;;4.30;3.50;;;;;;;27.89;45.34;99920.16;4137025;28;20911;-31
2022/08/02 08:25:47;;;;;;;5.05;3.75;;;;;;;28.02;45.37;99926.97;4141582;28;20320;-29
2022/08/02 08:27:51;;;;;;;4.50;3.10;;;;;;;27.12;46.25;99921.78;4136655;28;20238;-32
2022/08/02 08:29:52;;;;;;;5.00;3.35;;;;;;;27.77;45.63;99922.28;4139285;28;20257;-30
2022/08/02 08:31:54;;;;;;;3.47;2.97;;;;;;;28.59;44.13;99914.16;4136043;28;20245;-30
2022/08/02 08:33:56;;;;;;;5.53;3.42;;;;;;;28.20;44.43;99935.78;4123859;28;20716;-30
2022/08/02 08:35:57;;;;;;;3.08;2.78;;;;;;;27.14;47.04;99938.72;4138699;28;20234;-31
2022/08/02 08:38:03;;;;;;;3.70;3.33;;;;;;;27.96;45.60;99915.25;4134048;28;21459;-31
2022/08/02 08:40:09;;;;;;;4.68;3.70;;;;;;;28.22;45.03;99926.22;4139714;28;20268;-30
2022/08/02 08:42:11;;;;;;;5.28;3.20;;;;;;;28.45;44.51;99938.53;4139260;28;20238;-29
2022/08/02 08:44:13;;;;;;;4.07;3.20;;;;;;;28.56;44.49;99925.66;4139741;28;20237;-29
2022/08/02 08:46:29;;;;;;;7.30;3.28;;;;;;;27.93;45.24;99940.38;4137576;28;20284;-31
2022/08/02 08:48:35;;;;;;;3.45;3.15;;;;;;;28.65;44.09;99932.22;4128418;28;20229;-31
2022/08/02 08:50:42;;;;;;;7.22;3.50;;;;;;;26.93;47.17;99922.19;4123453;28;20241;-32
2022/08/02 08:52:52;;;;;;;4.40;3.35;;;;;;;28.37;44.25;99912.53;4125557;28;20249;-31
2022/08/02 08:54:55;;;;;;;4.10;3.25;;;;;;;28.60;43.99;99907.59;4125585;28;20719;-29
2022/08/02 08:57:03;;;;;;;4.22;3.20;;;;;;;28.43;44.65;99905.16;4130861;28;20287;-31
2022/08/02 08:59:05;;;;;;;3.35;3.05;;;;;;;28.28;44.57;99914.19;4119234;28;20297;-31
2022/08/02 09:01:08;;;;;;;5.22;3.17;;;;;;;28.26;44.45;99918.28;4124247;28;20249;-30
2022/08/02 09:03:09;;;;;;;4.25;2.70;;;;;;;27.29;46.30;99913.41;4129673;28;20230;-31
2022/08/02 09:05:14;;;;;;;4.57;3.22;;;;;;;28.00;44.67;99908.16;4140986;28;20240;-30
2022/08/02 09:07:15;;;;;;;4.70;3.10;;;;;;;29.04;43.34;99896.03;4140345;28;20229;-31
2022/08/02 09:09:17;;;;;;;4.13;2.95;;;;;;;28.84;43.45;99910.59;4134020;28;20314;-33
2022/08/02 09:11:23;;;;;;;5.15;2.90;;;;;;;28.40;44.21;99905.72;4134322;28;20245;-32
2022/08/02 09:13:30;;;;;;;4.80;3.28;;;;;;;29.02;43.45;99891.94;4133300;28;20233;-30
2022/08/02 09:15:56;;;;;;;3.60;3.30;;;;;;;29.13;42.76;99922.81;4126980;28;20237;-32
2022/08/02 09:17:58;;;;;;;4.18;2.92;;;;;;;29.40;42.76;99926.00;4124249;28;20260;-33
2022/08/02 09:20:07;;;;;;;2.95;2.50;;;;;;;29.12;43.05;99930.22;4126693;28;20238;-31
2022/08/02 09:22:11;;;;;;;3.30;2.58;;;;;;;29.50;42.13;99927.91;4125165;28;20229;-32
2022/08/02 09:24:21;;;;;;;5.93;2.85;;;;;;;29.16;42.79;99916.81;4118431;28;20230;-31
2022/08/02 09:26:23;;;;;;;5.63;2.92;;;;;;;28.85;43.67;99922.34;4126757;28;20232;-33
2022/08/02 09:28:27;;;;;;;4.63;3.00;;;;;;;27.86;44.38;99923.44;4126803;28;20229;-30
2022/08/02 09:30:29;;;;;;;3.40;2.90;;;;;;;28.92;43.33;99903.75;4140519;28;20237;-30
2022/08/02 09:32:42;;;;;;;4.10;3.08;;;;;;;28.82;43.45;99896.38;4137699;28;20616;-30
2022/08/02 09:34:51;;;;;;;3.53;2.72;;;;;;;29.77;42.45;99899.28;4142840;28;20237;-31
2022/08/02 09:36:53;;;;;;;4.95;3.03;;;;;;;29.98;41.18;99899.97;4142167;28;20237;-32
2022/08/02 09:39:02;;;;;;;3.25;2.92;;;;;;;30.03;41.36;99903.47;4142789;28;20244;-30
2022/08/02 09:41:24;;;;;;;4.38;3.10;;;;;;;29.65;42.14;99919.59;4142283;28;20260;-32
2022/08/02 09:43:35;;;;;;;3.13;2.83;;;;;;;29.22;42.47;99894.63;4135390;28;20237;-31
2022/08/02 09:45:37;;;;;;;3.03;2.72;;;;;;;29.10;42.66;99894.91;4131585;28;20233;-30
2022/08/02 09:47:39;;;;;;;3.95;2.90;;;;;;;29.86;41.99;99891.28;4129668;28;20233;-29
2022/08/02 09:49:45;;;;;;;4.88;2.95;;;;;;;30.01;41.66;99902.13;4137926;28;20642;-33
2022/08/02 09:51:55;;;;;;;3.28;2.88;;;;;;;30.13;40.86;99901.75;4131718;28;20284;-32
2022/08/02 09:54:00;;;;;;;3.13;2.83;;;;;;;30.31;41.11;99903.00;4128288;28;20244;-31
2022/08/02 09:56:09;;;;;;;4.85;3.20;;;;;;;29.96;41.34;99907.63;4126288;28;20313;-32